Terminal Aerodrome Forecast
Issued by NWS

Home | Current Version | Previous Version | Graphics & Text | Print | Product List | Glossary On
Versions: 1 2 3 4 5 6 7 8 9 10 11 12 13
000
FTUS43 KMPX 251120
TAFRWF
TAF
KRWF 251120Z 2512/2612 10011KT P6SM BKN015 OVC025
     FM251600 09012G19KT P6SM SCT025 OVC045
     FM252000 09010G16KT P6SM SCT030 OVC050
     FM260400 08005KT P6SM SKC=

USA.gov is the U.S. government's official web portal to all federal, state and local government web resources and services.